sensor_id;sensor_type;location;lat;lon;timestamp;temperature;humidity
16505;HTU21D;8365;51.030;4.696;2024-01-11T00:00:50;-2.18;108.62
16505;HTU21D;8365;51.030;4.696;2024-01-11T00:03:21;-2.19;108.81
16505;HTU21D;8365;51.030;4.696;2024-01-11T00:05:51;-2.43;110.97
16505;HTU21D;8365;51.030;4.696;2024-01-11T00:08:22;-2.50;111.38
16505;HTU21D;8365;51.030;4.696;2024-01-11T00:10:52;-2.60;111.53
16505;HTU21D;8365;51.030;4.696;2024-01-11T00:13:25;-2.63;110.83
16505;HTU21D;8365;51.030;4.696;2024-01-11T00:15:56;-2.56;111.27
16505;HTU21D;8365;51.030;4.696;2024-01-11T00:18:26;-2.26;109.81
16505;HTU21D;8365;51.030;4.696;2024-01-11T00:20:56;-2.27;110.09
16505;HTU21D;8365;51.030;4.696;2024-01-11T00:23:27;-2.33;109.60
16505;HTU21D;8365;51.030;4.696;2024-01-11T00:25:57;-2.36;109.55
16505;HTU21D;8365;51.030;4.696;2024-01-11T00:28:29;-2.42;108.86
16505;HTU21D;8365;51.030;4.696;2024-01-11T00:31:00;-2.32;109.21
16505;HTU21D;8365;51.030;4.696;2024-01-11T00:33:30;-2.32;109.33
16505;HTU21D;8365;51.030;4.696;2024-01-11T00:36:04;-2.26;109.06
16505;HTU21D;8365;51.030;4.696;2024-01-11T00:38:34;-2.39;110.07
16505;HTU21D;8365;51.030;4.696;2024-01-11T00:41:05;-2.22;108.61
16505;HTU21D;8365;51.030;4.696;2024-01-11T00:43:35;-2.39;110.11
16505;HTU21D;8365;51.030;4.696;2024-01-11T00:46:05;-2.42;109.75
16505;HTU21D;8365;51.030;4.696;2024-01-11T00:48:36;-2.27;110.06
16505;HTU21D;8365;51.030;4.696;2024-01-11T00:51:06;-2.36;109.52
16505;HTU21D;8365;51.030;4.696;2024-01-11T00:53:37;-2.41;110.78
16505;HTU21D;8365;51.030;4.696;2024-01-11T00:56:17;-2.45;110.46
16505;HTU21D;8365;51.030;4.696;2024-01-11T00:58:48;-2.50;111.26
16505;HTU21D;8365;51.030;4.696;2024-01-11T01:01:18;-2.50;110.26
16505;HTU21D;8365;51.030;4.696;2024-01-11T01:03:51;-2.56;110.85
16505;HTU21D;8365;51.030;4.696;2024-01-11T01:06:21;-2.50;110.38
16505;HTU21D;8365;51.030;4.696;2024-01-11T01:08:55;-2.35;109.68
16505;HTU21D;8365;51.030;4.696;2024-01-11T01:11:27;-2.30;109.87
16505;HTU21D;8365;51.030;4.696;2024-01-11T01:13:58;-2.16;109.02
16505;HTU21D;8365;51.030;4.696;2024-01-11T01:16:28;-2.13;109.57
16505;HTU21D;8365;51.030;4.696;2024-01-11T01:18:59;-2.12;109.43
16505;HTU21D;8365;51.030;4.696;2024-01-11T01:21:29;-2.14;109.16
16505;HTU21D;8365;51.030;4.696;2024-01-11T01:24:02;-2.06;109.41
16505;HTU21D;8365;51.030;4.696;2024-01-11T01:26:33;-2.05;109.88
16505;HTU21D;8365;51.030;4.696;2024-01-11T01:29:03;-2.20;110.19
16505;HTU21D;8365;51.030;4.696;2024-01-11T01:31:34;-2.34;111.30
16505;HTU21D;8365;51.030;4.696;2024-01-11T01:34:07;-2.26;111.60
16505;HTU21D;8365;51.030;4.696;2024-01-11T01:36:38;-2.34;110.81
16505;HTU21D;8365;51.030;4.696;2024-01-11T01:39:08;-2.57;111.27
16505;HTU21D;8365;51.030;4.696;2024-01-11T01:41:39;-2.43;111.50
16505;HTU21D;8365;51.030;4.696;2024-01-11T01:44:09;-2.45;110.74
16505;HTU21D;8365;51.030;4.696;2024-01-11T01:46:40;-2.61;112.57
16505;HTU21D;8365;51.030;4.696;2024-01-11T01:49:11;-2.51;112.28
16505;HTU21D;8365;51.030;4.696;2024-01-11T01:51:42;-2.79;113.93
16505;HTU21D;8365;51.030;4.696;2024-01-11T01:54:12;-2.80;114.46
16505;HTU21D;8365;51.030;4.696;2024-01-11T01:56:43;-2.84;115.12
16505;HTU21D;8365;51.030;4.696;2024-01-11T01:59:14;-2.56;112.87
16505;HTU21D;8365;51.030;4.696;2024-01-11T02:01:45;-2.74;113.69
16505;HTU21D;8365;51.030;4.696;2024-01-11T02:04:16;-2.84;114.24
16505;HTU21D;8365;51.030;4.696;2024-01-11T02:06:47;-2.64;113.54
16505;HTU21D;8365;51.030;4.696;2024-01-11T02:09:18;-2.82;113.99
16505;HTU21D;8365;51.030;4.696;2024-01-11T02:11:48;-2.93;114.84
16505;HTU21D;8365;51.030;4.696;2024-01-11T02:14:19;-2.98;115.67
16505;HTU21D;8365;51.030;4.696;2024-01-11T02:16:49;-2.79;114.76
16505;HTU21D;8365;51.030;4.696;2024-01-11T02:19:20;-2.88;115.46
16505;HTU21D;8365;51.030;4.696;2024-01-11T02:21:53;-2.91;115.22
16505;HTU21D;8365;51.030;4.696;2024-01-11T02:24:25;-3.21;117.57
16505;HTU21D;8365;51.030;4.696;2024-01-11T02:26:59;-2.97;117.05
16505;HTU21D;8365;51.030;4.696;2024-01-11T02:29:31;-3.22;117.47
16505;HTU21D;8365;51.030;4.696;2024-01-11T02:32:02;-3.39;118.76
16505;HTU21D;8365;51.030;4.696;2024-01-11T02:34:34;-3.30;118.99
16505;HTU21D;8365;51.030;4.696;2024-01-11T02:37:05;-3.22;118.99
16505;HTU21D;8365;51.030;4.696;2024-01-11T02:39:36;-3.27;118.99
16505;HTU21D;8365;51.030;4.696;2024-01-11T02:42:07;-3.34;118.99
16505;HTU21D;8365;51.030;4.696;2024-01-11T02:44:37;-3.16;118.99
16505;HTU21D;8365;51.030;4.696;2024-01-11T02:47:10;-3.15;118.97
16505;HTU21D;8365;51.030;4.696;2024-01-11T02:49:40;-3.06;118.99
16505;HTU21D;8365;51.030;4.696;2024-01-11T02:52:11;-3.28;118.99
16505;HTU21D;8365;51.030;4.696;2024-01-11T02:54:41;-3.18;118.90
16505;HTU21D;8365;51.030;4.696;2024-01-11T02:57:12;-3.07;118.70
16505;HTU21D;8365;51.030;4.696;2024-01-11T02:59:43;-3.09;118.56
16505;HTU21D;8365;51.030;4.696;2024-01-11T03:02:13;-3.31;118.99
16505;HTU21D;8365;51.030;4.696;2024-01-11T03:04:44;-3.09;118.99
16505;HTU21D;8365;51.030;4.696;2024-01-11T03:07:14;-3.40;118.99
16505;HTU21D;8365;51.030;4.696;2024-01-11T03:09:45;-3.48;118.99
16505;HTU21D;8365;51.030;4.696;2024-01-11T03:12:15;-3.39;118.99
16505;HTU21D;8365;51.030;4.696;2024-01-11T03:14:46;-3.39;118.99
16505;HTU21D;8365;51.030;4.696;2024-01-11T03:17:17;-3.66;118.99
16505;HTU21D;8365;51.030;4.696;2024-01-11T03:19:47;-3.91;118.99
16505;HTU21D;8365;51.030;4.696;2024-01-11T03:22:17;-3.77;118.99
16505;HTU21D;8365;51.030;4.696;2024-01-11T03:24:48;-3.78;118.99
16505;HTU21D;8365;51.030;4.696;2024-01-11T03:27:18;-3.62;118.99
16505;HTU21D;8365;51.030;4.696;2024-01-11T03:29:49;-3.63;118.99
16505;HTU21D;8365;51.030;4.696;2024-01-11T03:32:20;-3.74;118.99
16505;HTU21D;8365;51.030;4.696;2024-01-11T03:34:50;-3.78;118.99
16505;HTU21D;8365;51.030;4.696;2024-01-11T03:37:21;-3.81;118.99
16505;HTU21D;8365;51.030;4.696;2024-01-11T03:39:51;-3.75;118.99
16505;HTU21D;8365;51.030;4.696;2024-01-11T03:42:22;-3.83;118.99
16505;HTU21D;8365;51.030;4.696;2024-01-11T03:44:52;-3.69;118.99
16505;HTU21D;8365;51.030;4.696;2024-01-11T03:47:23;-3.55;118.99
16505;HTU21D;8365;51.030;4.696;2024-01-11T03:49:53;-3.56;118.99
16505;HTU21D;8365;51.030;4.696;2024-01-11T03:52:24;-3.49;118.99
16505;HTU21D;8365;51.030;4.696;2024-01-11T03:54:54;-3.43;118.99
16505;HTU21D;8365;51.030;4.696;2024-01-11T03:57:25;-3.75;118.99
16505;HTU21D;8365;51.030;4.696;2024-01-11T03:59:55;-3.85;118.99
16505;HTU21D;8365;51.030;4.696;2024-01-11T04:02:26;-3.66;118.99
16505;HTU21D;8365;51.030;4.696;2024-01-11T04:04:59;-3.78;118.99
16505;HTU21D;8365;51.030;4.696;2024-01-11T04:07:29;-4.11;118.99
16505;HTU21D;8365;51.030;4.696;2024-01-11T04:10:02;-3.94;118.99
16505;HTU21D;8365;51.030;4.696;2024-01-11T04:12:33;-3.78;118.99
16505;HTU21D;8365;51.030;4.696;2024-01-11T04:15:03;-3.68;118.99
16505;HTU21D;8365;51.030;4.696;2024-01-11T04:17:34;-3.63;118.99
16505;HTU21D;8365;51.030;4.696;2024-01-11T04:20:06;-3.53;118.99
16505;HTU21D;8365;51.030;4.696;2024-01-11T04:22:37;-3.55;118.99
16505;HTU21D;8365;51.030;4.696;2024-01-11T04:25:07;-3.42;118.99
16505;HTU21D;8365;51.030;4.696;2024-01-11T04:27:38;-3.57;118.99
16505;HTU21D;8365;51.030;4.696;2024-01-11T04:30:08;-3.64;118.99
16505;HTU21D;8365;51.030;4.696;2024-01-11T04:32:39;-3.70;118.99
16505;HTU21D;8365;51.030;4.696;2024-01-11T04:35:09;-3.50;118.99
16505;HTU21D;8365;51.030;4.696;2024-01-11T04:37:40;-3.43;118.99
16505;HTU21D;8365;51.030;4.696;2024-01-11T04:40:10;-3.52;118.99
16505;HTU21D;8365;51.030;4.696;2024-01-11T04:42:41;-3.42;118.99
16505;HTU21D;8365;51.030;4.696;2024-01-11T04:45:11;-3.48;118.99
16505;HTU21D;8365;51.030;4.696;2024-01-11T04:47:42;-3.61;118.99
16505;HTU21D;8365;51.030;4.696;2024-01-11T04:50:12;-3.58;118.99
16505;HTU21D;8365;51.030;4.696;2024-01-11T04:52:43;-3.69;118.99
16505;HTU21D;8365;51.030;4.696;2024-01-11T04:55:13;-3.56;118.99
16505;HTU21D;8365;51.030;4.696;2024-01-11T04:57:44;-3.55;118.99
16505;HTU21D;8365;51.030;4.696;2024-01-11T05:00:14;-3.48;118.99
16505;HTU21D;8365;51.030;4.696;2024-01-11T05:02:45;-3.49;118.99
16505;HTU21D;8365;51.030;4.696;2024-01-11T05:05:16;-3.40;118.99
16505;HTU21D;8365;51.030;4.696;2024-01-11T05:07:46;-3.30;118.99
16505;HTU21D;8365;51.030;4.696;2024-01-11T05:10:17;-3.20;118.99
16505;HTU21D;8365;51.030;4.696;2024-01-11T05:12:47;-3.32;118.99
16505;HTU21D;8365;51.030;4.696;2024-01-11T05:15:20;-3.46;118.99
16505;HTU21D;8365;51.030;4.696;2024-01-11T05:17:50;-3.40;118.99
16505;HTU21D;8365;51.030;4.696;2024-01-11T05:20:23;-3.42;118.99
16505;HTU21D;8365;51.030;4.696;2024-01-11T05:22:54;-3.41;118.99
16505;HTU21D;8365;51.030;4.696;2024-01-11T05:25:24;-3.35;118.99
16505;HTU21D;8365;51.030;4.696;2024-01-11T05:27:55;-3.22;118.99
16505;HTU21D;8365;51.030;4.696;2024-01-11T05:30:25;-3.28;118.99
16505;HTU21D;8365;51.030;4.696;2024-01-11T05:32:56;-3.37;118.99
16505;HTU21D;8365;51.030;4.696;2024-01-11T05:35:29;-3.25;118.99
16505;HTU21D;8365;51.030;4.696;2024-01-11T05:37:59;-3.41;118.99
16505;HTU21D;8365;51.030;4.696;2024-01-11T05:40:33;-3.46;118.99
16505;HTU21D;8365;51.030;4.696;2024-01-11T05:43:03;-3.40;118.99
16505;HTU21D;8365;51.030;4.696;2024-01-11T05:45:34;-3.43;118.99
16505;HTU21D;8365;51.030;4.696;2024-01-11T05:48:04;-3.66;118.99
16505;HTU21D;8365;51.030;4.696;2024-01-11T05:50:36;-3.41;118.99
16505;HTU21D;8365;51.030;4.696;2024-01-11T05:53:06;-3.28;118.99
16505;HTU21D;8365;51.030;4.696;2024-01-11T05:55:37;-3.45;118.99
16505;HTU21D;8365;51.030;4.696;2024-01-11T05:58:07;-3.58;118.99
16505;HTU21D;8365;51.030;4.696;2024-01-11T06:00:38;-3.60;118.99
16505;HTU21D;8365;51.030;4.696;2024-01-11T06:03:11;-3.37;118.99
16505;HTU21D;8365;51.030;4.696;2024-01-11T06:05:41;-3.39;118.99
16505;HTU21D;8365;51.030;4.696;2024-01-11T06:08:12;-3.49;118.99
16505;HTU21D;8365;51.030;4.696;2024-01-11T06:10:45;-3.51;118.99
16505;HTU21D;8365;51.030;4.696;2024-01-11T06:13:15;-3.53;118.99
16505;HTU21D;8365;51.030;4.696;2024-01-11T06:15:46;-3.42;118.99
16505;HTU21D;8365;51.030;4.696;2024-01-11T06:18:16;-3.58;118.99
16505;HTU21D;8365;51.030;4.696;2024-01-11T06:20:46;-3.87;118.99
16505;HTU21D;8365;51.030;4.696;2024-01-11T06:23:17;-3.55;118.99
16505;HTU21D;8365;51.030;4.696;2024-01-11T06:25:49;-3.79;118.99
16505;HTU21D;8365;51.030;4.696;2024-01-11T06:28:20;-4.06;118.99
16505;HTU21D;8365;51.030;4.696;2024-01-11T06:30:50;-3.99;118.99
16505;HTU21D;8365;51.030;4.696;2024-01-11T06:33:20;-4.10;118.99
16505;HTU21D;8365;51.030;4.696;2024-01-11T06:35:51;-3.99;118.99
16505;HTU21D;8365;51.030;4.696;2024-01-11T06:38:22;-4.07;118.99
16505;HTU21D;8365;51.030;4.696;2024-01-11T06:40:52;-4.20;118.99
16505;HTU21D;8365;51.030;4.696;2024-01-11T06:43:22;-4.20;118.99
16505;HTU21D;8365;51.030;4.696;2024-01-11T06:45:55;-4.26;118.99
16505;HTU21D;8365;51.030;4.696;2024-01-11T06:48:26;-4.23;118.99
16505;HTU21D;8365;51.030;4.696;2024-01-11T06:50:56;-4.23;118.99
16505;HTU21D;8365;51.030;4.696;2024-01-11T06:53:26;-4.21;118.99
16505;HTU21D;8365;51.030;4.696;2024-01-11T06:55:57;-4.09;118.99
16505;HTU21D;8365;51.030;4.696;2024-01-11T06:58:27;-3.95;118.99
16505;HTU21D;8365;51.030;4.696;2024-01-11T07:00:58;-4.02;118.99
16505;HTU21D;8365;51.030;4.696;2024-01-11T07:03:31;-3.98;118.99
16505;HTU21D;8365;51.030;4.696;2024-01-11T07:06:01;-4.17;118.99
16505;HTU21D;8365;51.030;4.696;2024-01-11T07:08:33;-3.95;118.99
16505;HTU21D;8365;51.030;4.696;2024-01-11T07:11:04;-3.89;118.99
16505;HTU21D;8365;51.030;4.696;2024-01-11T07:13:34;-3.99;118.99
16505;HTU21D;8365;51.030;4.696;2024-01-11T07:16:05;-3.81;118.99
16505;HTU21D;8365;51.030;4.696;2024-01-11T07:18:36;-3.91;118.99
16505;HTU21D;8365;51.030;4.696;2024-01-11T07:21:06;-4.01;118.99
16505;HTU21D;8365;51.030;4.696;2024-01-11T07:23:36;-4.07;118.99
16505;HTU21D;8365;51.030;4.696;2024-01-11T07:26:07;-4.01;118.99
16505;HTU21D;8365;51.030;4.696;2024-01-11T07:28:38;-4.25;118.99
16505;HTU21D;8365;51.030;4.696;2024-01-11T07:31:10;-4.15;118.99
16505;HTU21D;8365;51.030;4.696;2024-01-11T07:33:41;-4.40;118.99
16505;HTU21D;8365;51.030;4.696;2024-01-11T07:36:11;-4.38;118.99
16505;HTU21D;8365;51.030;4.696;2024-01-11T07:38:42;-4.24;118.99
16505;HTU21D;8365;51.030;4.696;2024-01-11T07:41:13;-4.50;118.99
16505;HTU21D;8365;51.030;4.696;2024-01-11T07:43:46;-4.37;118.99
16505;HTU21D;8365;51.030;4.696;2024-01-11T07:46:16;-4.32;118.99
16505;HTU21D;8365;51.030;4.696;2024-01-11T07:48:47;-4.37;118.99
16505;HTU21D;8365;51.030;4.696;2024-01-11T07:51:17;-4.49;118.99
16505;HTU21D;8365;51.030;4.696;2024-01-11T07:53:50;-4.49;118.99
16505;HTU21D;8365;51.030;4.696;2024-01-11T07:56:20;-4.27;118.99
16505;HTU21D;8365;51.030;4.696;2024-01-11T07:58:50;-4.37;118.99
16505;HTU21D;8365;51.030;4.696;2024-01-11T08:01:21;-4.44;118.99
16505;HTU21D;8365;51.030;4.696;2024-01-11T08:03:51;-4.40;118.99
16505;HTU21D;8365;51.030;4.696;2024-01-11T08:06:22;-4.09;118.99
16505;HTU21D;8365;51.030;4.696;2024-01-11T08:08:52;-4.06;118.99
16505;HTU21D;8365;51.030;4.696;2024-01-11T08:11:23;-3.89;118.99
16505;HTU21D;8365;51.030;4.696;2024-01-11T08:13:53;-3.75;118.99
16505;HTU21D;8365;51.030;4.696;2024-01-11T08:16:25;-3.66;118.99
16505;HTU21D;8365;51.030;4.696;2024-01-11T08:18:55;-3.69;118.99
16505;HTU21D;8365;51.030;4.696;2024-01-11T08:21:26;-3.32;118.99
16505;HTU21D;8365;51.030;4.696;2024-01-11T08:23:56;-3.05;118.99
16505;HTU21D;8365;51.030;4.696;2024-01-11T08:26:27;-2.86;118.99
16505;HTU21D;8365;51.030;4.696;2024-01-11T08:28:57;-2.78;118.99
16505;HTU21D;8365;51.030;4.696;2024-01-11T08:31:28;-2.51;118.99
16505;HTU21D;8365;51.030;4.696;2024-01-11T08:33:59;-2.61;118.99
16505;HTU21D;8365;51.030;4.696;2024-01-11T08:36:33;-2.61;118.99
16505;HTU21D;8365;51.030;4.696;2024-01-11T08:39:05;-2.46;118.99
16505;HTU21D;8365;51.030;4.696;2024-01-11T08:41:36;-2.28;118.99
16505;HTU21D;8365;51.030;4.696;2024-01-11T08:44:07;-1.80;117.60
16505;HTU21D;8365;51.030;4.696;2024-01-11T08:46:38;-1.54;117.25
16505;HTU21D;8365;51.030;4.696;2024-01-11T08:49:08;-1.38;115.17
16505;HTU21D;8365;51.030;4.696;2024-01-11T08:51:39;-1.49;113.38
16505;HTU21D;8365;51.030;4.696;2024-01-11T08:54:09;-1.47;112.39
16505;HTU21D;8365;51.030;4.696;2024-01-11T08:56:44;-1.43;112.24
16505;HTU21D;8365;51.030;4.696;2024-01-11T08:59:15;-1.38;112.48
16505;HTU21D;8365;51.030;4.696;2024-01-11T09:01:47;-1.46;110.39
16505;HTU21D;8365;51.030;4.696;2024-01-11T09:04:20;-1.46;111.52
16505;HTU21D;8365;51.030;4.696;2024-01-11T09:06:51;-1.26;111.32
16505;HTU21D;8365;51.030;4.696;2024-01-11T09:09:21;-1.49;112.31
16505;HTU21D;8365;51.030;4.696;2024-01-11T09:11:52;-1.65;111.28
16505;HTU21D;8365;51.030;4.696;2024-01-11T09:14:22;-1.77;114.45
16505;HTU21D;8365;51.030;4.696;2024-01-11T09:16:53;-1.64;113.42
16505;HTU21D;8365;51.030;4.696;2024-01-11T09:19:23;-1.68;112.51
16505;HTU21D;8365;51.030;4.696;2024-01-11T09:21:54;-1.46;112.58
16505;HTU21D;8365;51.030;4.696;2024-01-11T09:24:24;-1.54;111.61
16505;HTU21D;8365;51.030;4.696;2024-01-11T09:26:55;-1.25;111.43
16505;HTU21D;8365;51.030;4.696;2024-01-11T09:29:26;-0.94;110.68
16505;HTU21D;8365;51.030;4.696;2024-01-11T09:31:58;-0.43;109.04
16505;HTU21D;8365;51.030;4.696;2024-01-11T09:34:29;0.19;103.86
16505;HTU21D;8365;51.030;4.696;2024-01-11T09:37:00;0.75;101.99
16505;HTU21D;8365;51.030;4.696;2024-01-11T09:39:30;1.19;97.49
16505;HTU21D;8365;51.030;4.696;2024-01-11T09:42:07;1.81;95.61
16505;HTU21D;8365;51.030;4.696;2024-01-11T09:44:40;2.12;92.05
16505;HTU21D;8365;51.030;4.696;2024-01-11T09:47:14;2.21;91.38
16505;HTU21D;8365;51.030;4.696;2024-01-11T09:49:48;2.80;89.02
16505;HTU21D;8365;51.030;4.696;2024-01-11T09:52:22;3.34;84.23
16505;HTU21D;8365;51.030;4.696;2024-01-11T09:54:55;3.73;83.58
16505;HTU21D;8365;51.030;4.696;2024-01-11T09:57:30;4.03;82.10
16505;HTU21D;8365;51.030;4.696;2024-01-11T10:00:03;3.84;84.42
16505;HTU21D;8365;51.030;4.696;2024-01-11T10:02:38;4.77;95.97
16505;HTU21D;8365;51.030;4.696;2024-01-11T10:05:10;4.62;79.57
16505;HTU21D;8365;51.030;4.696;2024-01-11T10:07:44;4.77;77.80
16505;HTU21D;8365;51.030;4.696;2024-01-11T10:10:17;4.80;75.29
16505;HTU21D;8365;51.030;4.696;2024-01-11T10:12:48;5.57;73.86
16505;HTU21D;8365;51.030;4.696;2024-01-11T10:15:24;5.28;73.36
16505;HTU21D;8365;51.030;4.696;2024-01-11T10:17:54;5.66;70.45
16505;HTU21D;8365;51.030;4.696;2024-01-11T10:20:25;5.52;71.22
16505;HTU21D;8365;51.030;4.696;2024-01-11T10:22:56;6.07;68.20
16505;HTU21D;8365;51.030;4.696;2024-01-11T10:25:27;6.14;68.19
16505;HTU21D;8365;51.030;4.696;2024-01-11T10:27:59;5.75;67.63
16505;HTU21D;8365;51.030;4.696;2024-01-11T10:30:29;6.19;68.31
16505;HTU21D;8365;51.030;4.696;2024-01-11T10:33:00;6.34;67.86
16505;HTU21D;8365;51.030;4.696;2024-01-11T10:35:31;6.39;68.35
16505;HTU21D;8365;51.030;4.696;2024-01-11T10:38:06;6.46;67.43
16505;HTU21D;8365;51.030;4.696;2024-01-11T10:40:40;7.11;65.62
16505;HTU21D;8365;51.030;4.696;2024-01-11T10:43:12;7.26;65.36
16505;HTU21D;8365;51.030;4.696;2024-01-11T10:45:48;7.68;63.41
16505;HTU21D;8365;51.030;4.696;2024-01-11T10:48:21;7.47;63.80
16505;HTU21D;8365;51.030;4.696;2024-01-11T10:50:54;8.02;62.27
16505;HTU21D;8365;51.030;4.696;2024-01-11T10:53:43;7.94;61.09
16505;HTU21D;8365;51.030;4.696;2024-01-11T10:56:16;7.52;62.25
16505;HTU21D;8365;51.030;4.696;2024-01-11T10:58:47;8.00;60.98
16505;HTU21D;8365;51.030;4.696;2024-01-11T11:01:20;8.00;61.92
16505;HTU21D;8365;51.030;4.696;2024-01-11T11:03:52;7.97;61.32
16505;HTU21D;8365;51.030;4.696;2024-01-11T11:06:26;8.49;59.53
16505;HTU21D;8365;51.030;4.696;2024-01-11T11:09:01;9.27;63.44
16505;HTU21D;8365;51.030;4.696;2024-01-11T11:11:34;9.79;58.79
16505;HTU21D;8365;51.030;4.696;2024-01-11T11:14:05;9.91;56.43
16505;HTU21D;8365;51.030;4.696;2024-01-11T11:16:36;9.19;57.69
16505;HTU21D;8365;51.030;4.696;2024-01-11T11:19:07;9.69;57.44
16505;HTU21D;8365;51.030;4.696;2024-01-11T11:21:43;9.91;55.16
16505;HTU21D;8365;51.030;4.696;2024-01-11T11:24:16;10.10;54.57
16505;HTU21D;8365;51.030;4.696;2024-01-11T11:26:49;8.85;57.20
16505;HTU21D;8365;51.030;4.696;2024-01-11T11:29:20;9.23;56.79
16505;HTU21D;8365;51.030;4.696;2024-01-11T11:31:51;9.29;56.91
16505;HTU21D;8365;51.030;4.696;2024-01-11T11:34:41;9.66;55.13
16505;HTU21D;8365;51.030;4.696;2024-01-11T11:37:22;9.78;56.46
16505;HTU21D;8365;51.030;4.696;2024-01-11T11:39:53;10.35;56.42
16505;HTU21D;8365;51.030;4.696;2024-01-11T11:42:24;9.95;57.05
16505;HTU21D;8365;51.030;4.696;2024-01-11T11:44:56;10.41;55.95
16505;HTU21D;8365;51.030;4.696;2024-01-11T11:47:35;9.98;56.67
16505;HTU21D;8365;51.030;4.696;2024-01-11T11:50:10;10.00;54.44
16505;HTU21D;8365;51.030;4.696;2024-01-11T11:52:41;10.96;54.18
16505;HTU21D;8365;51.030;4.696;2024-01-11T11:55:17;10.70;54.85
16505;HTU21D;8365;51.030;4.696;2024-01-11T11:57:48;10.21;54.70
16505;HTU21D;8365;51.030;4.696;2024-01-11T12:00:20;10.28;54.68
16505;HTU21D;8365;51.030;4.696;2024-01-11T12:02:50;9.67;55.60
16505;HTU21D;8365;51.030;4.696;2024-01-11T12:05:22;10.53;53.93
16505;HTU21D;8365;51.030;4.696;2024-01-11T12:07:53;9.96;53.98
16505;HTU21D;8365;51.030;4.696;2024-01-11T12:10:24;11.07;52.85
16505;HTU21D;8365;51.030;4.696;2024-01-11T12:12:54;10.05;54.47
16505;HTU21D;8365;51.030;4.696;2024-01-11T12:15:27;10.20;55.47
16505;HTU21D;8365;51.030;4.696;2024-01-11T12:17:58;10.86;52.13
16505;HTU21D;8365;51.030;4.696;2024-01-11T12:20:34;10.08;54.70
16505;HTU21D;8365;51.030;4.696;2024-01-11T12:23:05;10.60;53.69
16505;HTU21D;8365;51.030;4.696;2024-01-11T12:25:36;11.00;53.72
16505;HTU21D;8365;51.030;4.696;2024-01-11T12:28:07;11.69;52.31
16505;HTU21D;8365;51.030;4.696;2024-01-11T12:30:38;12.20;51.01
16505;HTU21D;8365;51.030;4.696;2024-01-11T12:33:09;11.45;50.37
16505;HTU21D;8365;51.030;4.696;2024-01-11T12:35:40;11.86;50.48
16505;HTU21D;8365;51.030;4.696;2024-01-11T12:38:11;12.49;50.15
16505;HTU21D;8365;51.030;4.696;2024-01-11T12:40:41;10.62;51.91
16505;HTU21D;8365;51.030;4.696;2024-01-11T12:43:12;11.42;51.05
16505;HTU21D;8365;51.030;4.696;2024-01-11T12:45:43;12.27;50.53
16505;HTU21D;8365;51.030;4.696;2024-01-11T12:48:13;11.90;51.00
16505;HTU21D;8365;51.030;4.696;2024-01-11T12:50:46;10.97;50.18
16505;HTU21D;8365;51.030;4.696;2024-01-11T12:53:16;9.80;53.88
16505;HTU21D;8365;51.030;4.696;2024-01-11T12:56:04;11.04;52.05
16505;HTU21D;8365;51.030;4.696;2024-01-11T12:58:39;11.18;51.33
16505;HTU21D;8365;51.030;4.696;2024-01-11T13:01:16;11.44;51.86
16505;HTU21D;8365;51.030;4.696;2024-01-11T13:03:46;11.00;51.98
16505;HTU21D;8365;51.030;4.696;2024-01-11T13:06:17;11.08;51.69
16505;HTU21D;8365;51.030;4.696;2024-01-11T13:08:49;11.31;51.39
16505;HTU21D;8365;51.030;4.696;2024-01-11T13:11:20;10.82;51.08
16505;HTU21D;8365;51.030;4.696;2024-01-11T13:13:51;11.08;52.51
16505;HTU21D;8365;51.030;4.696;2024-01-11T13:16:24;11.81;49.72
16505;HTU21D;8365;51.030;4.696;2024-01-11T13:18:55;12.04;50.05
16505;HTU21D;8365;51.030;4.696;2024-01-11T13:21:25;11.45;49.97
16505;HTU21D;8365;51.030;4.696;2024-01-11T13:23:56;11.16;49.89
16505;HTU21D;8365;51.030;4.696;2024-01-11T13:26:27;10.58;51.68
16505;HTU21D;8365;51.030;4.696;2024-01-11T13:29:00;11.49;50.10
16505;HTU21D;8365;51.030;4.696;2024-01-11T13:31:32;10.81;50.22
16505;HTU21D;8365;51.030;4.696;2024-01-11T13:34:02;11.53;51.01
16505;HTU21D;8365;51.030;4.696;2024-01-11T13:36:36;12.00;49.49
16505;HTU21D;8365;51.030;4.696;2024-01-11T13:39:06;12.32;48.73
16505;HTU21D;8365;51.030;4.696;2024-01-11T13:41:39;10.93;49.63
16505;HTU21D;8365;51.030;4.696;2024-01-11T13:44:12;10.52;50.37
16505;HTU21D;8365;51.030;4.696;2024-01-11T13:46:42;10.40;49.83
16505;HTU21D;8365;51.030;4.696;2024-01-11T13:49:14;10.26;49.03
16505;HTU21D;8365;51.030;4.696;2024-01-11T13:51:44;9.88;50.97
16505;HTU21D;8365;51.030;4.696;2024-01-11T13:54:15;10.87;50.74
16505;HTU21D;8365;51.030;4.696;2024-01-11T13:56:50;10.55;49.85
16505;HTU21D;8365;51.030;4.696;2024-01-11T13:59:22;10.80;48.49
16505;HTU21D;8365;51.030;4.696;2024-01-11T14:01:54;10.97;49.84
16505;HTU21D;8365;51.030;4.696;2024-01-11T14:04:24;10.58;50.45
16505;HTU21D;8365;51.030;4.696;2024-01-11T14:06:55;11.32;50.08
16505;HTU21D;8365;51.030;4.696;2024-01-11T14:09:25;11.24;49.59
16505;HTU21D;8365;51.030;4.696;2024-01-11T14:11:56;10.93;48.72
16505;HTU21D;8365;51.030;4.696;2024-01-11T14:14:26;10.46;48.89
16505;HTU21D;8365;51.030;4.696;2024-01-11T14:16:57;10.50;49.27
16505;HTU21D;8365;51.030;4.696;2024-01-11T14:19:27;10.31;50.72
16505;HTU21D;8365;51.030;4.696;2024-01-11T14:21:58;10.72;49.66
16505;HTU21D;8365;51.030;4.696;2024-01-11T14:24:28;9.94;50.50
16505;HTU21D;8365;51.030;4.696;2024-01-11T14:26:59;9.22;50.66
16505;HTU21D;8365;51.030;4.696;2024-01-11T14:29:29;9.32;50.40
16505;HTU21D;8365;51.030;4.696;2024-01-11T14:32:00;9.38;50.10
16505;HTU21D;8365;51.030;4.696;2024-01-11T14:34:30;9.54;49.85
16505;HTU21D;8365;51.030;4.696;2024-01-11T14:37:01;9.03;49.79
16505;HTU21D;8365;51.030;4.696;2024-01-11T14:39:31;9.44;50.27
16505;HTU21D;8365;51.030;4.696;2024-01-11T14:42:02;9.57;50.79
16505;HTU21D;8365;51.030;4.696;2024-01-11T14:44:32;9.94;50.80
16505;HTU21D;8365;51.030;4.696;2024-01-11T14:47:03;9.69;50.85
16505;HTU21D;8365;51.030;4.696;2024-01-11T14:49:34;9.45;50.69
16505;HTU21D;8365;51.030;4.696;2024-01-11T14:52:05;8.68;51.80
16505;HTU21D;8365;51.030;4.696;2024-01-11T14:54:35;8.29;52.56
16505;HTU21D;8365;51.030;4.696;2024-01-11T14:57:06;8.53;52.57
16505;HTU21D;8365;51.030;4.696;2024-01-11T14:59:37;8.53;52.82
16505;HTU21D;8365;51.030;4.696;2024-01-11T15:02:07;8.77;52.75
16505;HTU21D;8365;51.030;4.696;2024-01-11T15:04:38;8.96;53.29
16505;HTU21D;8365;51.030;4.696;2024-01-11T15:07:08;8.01;56.51
16505;HTU21D;8365;51.030;4.696;2024-01-11T15:09:39;8.29;57.89
16505;HTU21D;8365;51.030;4.696;2024-01-11T15:12:09;7.90;59.67
16505;HTU21D;8365;51.030;4.696;2024-01-11T15:14:40;6.98;63.01
16505;HTU21D;8365;51.030;4.696;2024-01-11T15:17:10;6.48;66.33
16505;HTU21D;8365;51.030;4.696;2024-01-11T15:19:41;6.27;68.78
16505;HTU21D;8365;51.030;4.696;2024-01-11T15:22:11;5.75;71.61
16505;HTU21D;8365;51.030;4.696;2024-01-11T15:24:44;5.65;73.64
16505;HTU21D;8365;51.030;4.696;2024-01-11T15:27:14;5.04;84.14
16505;HTU21D;8365;51.030;4.696;2024-01-11T15:29:47;4.87;88.65
16505;HTU21D;8365;51.030;4.696;2024-01-11T15:32:18;4.66;91.02
16505;HTU21D;8365;51.030;4.696;2024-01-11T15:34:48;4.46;92.96
16505;HTU21D;8365;51.030;4.696;2024-01-11T15:37:22;4.09;95.32
16505;HTU21D;8365;51.030;4.696;2024-01-11T15:39:55;3.80;97.99
16505;HTU21D;8365;51.030;4.696;2024-01-11T15:42:31;3.87;99.36
16505;HTU21D;8365;51.030;4.696;2024-01-11T15:45:02;3.78;100.01
16505;HTU21D;8365;51.030;4.696;2024-01-11T15:47:34;3.89;98.95
16505;HTU21D;8365;51.030;4.696;2024-01-11T15:50:06;3.39;103.09